Time;durP1;ratioP1;P1;durP2;ratioP2;P2;SDS_P1;SDS_P2;PMS_P1;PMS_P2;Temp;Humidity;BMP_temperature;BMP_pressure;BME280_temperature;BME280_humidity;BME280_pressure;Samples;Min_cycle;Max_cycle;Signal;HPM_P1;HPM_P2
2022/04/03 00:01:33;;;;;;;4.73;2.80;;;0.70;99.90;;;;;;5061040;28;38099;-74
2022/04/03 00:03:59;;;;;;;7.27;2.90;;;0.60;99.90;;;;;;5063082;28;37442;-74
2022/04/03 00:06:25;;;;;;;5.10;2.37;;;0.60;99.90;;;;;;5059476;28;36912;-74
2022/04/03 00:08:51;;;;;;;3.67;2.30;;;0.60;99.90;;;;;;5060920;27;37656;-74
2022/04/03 00:11:17;;;;;;;4.33;2.70;;;0.60;99.90;;;;;;5058643;28;38901;-73
2022/04/03 00:13:44;;;;;;;6.93;2.47;;;0.70;99.90;;;;;;5060585;28;38581;-74
2022/04/03 00:16:11;;;;;;;5.37;3.03;;;0.70;99.90;;;;;;5055304;28;35884;-74
2022/04/03 00:18:37;;;;;;;8.17;3.77;;;0.80;99.90;;;;;;5054577;28;37402;-74
2022/04/03 00:21:04;;;;;;;6.47;3.60;;;0.70;99.90;;;;;;5070207;28;38545;-74
2022/04/03 00:23:30;;;;;;;7.03;3.97;;;0.70;99.90;;;;;;5059221;27;38119;-74
2022/04/03 00:25:56;;;;;;;9.63;4.17;;;0.70;99.90;;;;;;5053834;28;38370;-76
2022/04/03 00:28:23;;;;;;;7.97;3.27;;;0.80;99.90;;;;;;5058405;28;39541;-74
2022/04/03 00:30:49;;;;;;;5.30;3.10;;;0.80;99.90;;;;;;5059442;28;38358;-75
2022/04/03 00:33:15;;;;;;;4.70;2.57;;;0.90;99.90;;;;;;5058930;28;38067;-74
2022/04/03 00:35:41;;;;;;;7.63;2.67;;;1.00;99.90;;;;;;5059502;28;36736;-73
2022/04/03 00:38:08;;;;;;;5.33;3.20;;;1.00;99.90;;;;;;5057628;28;41058;-74
2022/04/03 00:40:34;;;;;;;3.93;3.20;;;0.90;99.90;;;;;;5055371;28;38588;-74
2022/04/03 00:43:00;;;;;;;7.13;2.80;;;0.80;99.90;;;;;;5055464;28;38692;-74
2022/04/03 00:45:26;;;;;;;7.60;2.67;;;0.70;99.90;;;;;;5058835;28;39413;-74
2022/04/03 00:47:54;;;;;;;5.87;3.20;;;0.70;99.90;;;;;;5050253;27;38670;-76
2022/04/03 00:50:21;;;;;;;5.30;3.00;;;0.70;99.90;;;;;;5056302;28;38585;-74
2022/04/03 00:52:48;;;;;;;4.20;2.93;;;0.80;99.90;;;;;;5055354;27;39326;-74
2022/04/03 00:55:14;;;;;;;7.97;3.07;;;0.90;99.90;;;;;;5055837;28;38043;-73
2022/04/03 00:57:44;;;;;;;4.10;2.70;;;1.00;99.90;;;;;;5057808;28;41104;-74
2022/04/03 01:00:14;;;;;;;4.70;2.53;;;1.10;99.90;;;;;;5054674;28;38931;-73
2022/04/03 01:02:41;;;;;;;7.23;3.00;;;1.30;99.90;;;;;;5055935;28;39112;-74
2022/04/03 01:05:08;;;;;;;4.90;3.20;;;1.30;99.90;;;;;;5056411;28;37053;-74
2022/04/03 01:07:34;;;;;;;5.70;2.80;;;1.40;99.90;;;;;;5060074;27;39572;-74
2022/04/03 01:10:01;;;;;;;5.10;3.37;;;1.40;99.90;;;;;;5056392;28;38088;-75
2022/04/03 01:12:28;;;;;;;9.60;2.97;;;1.40;99.90;;;;;;5058018;27;48592;-74
2022/04/03 01:14:54;;;;;;;6.47;2.93;;;1.30;99.90;;;;;;5052928;28;37249;-75
2022/04/03 01:17:20;;;;;;;8.03;2.93;;;1.20;99.90;;;;;;5057067;27;37682;-74
2022/04/03 01:19:46;;;;;;;6.40;3.20;;;1.00;99.90;;;;;;5053525;28;37408;-74
2022/04/03 01:22:12;;;;;;;7.90;3.20;;;0.90;99.90;;;;;;5059323;28;37885;-74
2022/04/03 01:24:43;;;;;;;4.70;2.80;;;0.80;99.90;;;;;;5057146;28;37434;-74
2022/04/03 01:27:10;;;;;;;7.90;2.97;;;0.70;99.90;;;;;;5052733;28;39051;-74
2022/04/03 01:29:36;;;;;;;8.10;3.60;;;0.60;99.90;;;;;;5056525;28;38506;-76
2022/04/03 01:32:03;;;;;;;6.30;3.43;;;0.60;99.90;;;;;;5066160;27;38424;-76
2022/04/03 01:34:30;;;;;;;9.20;3.57;;;0.50;99.90;;;;;;5067735;28;37919;-76
2022/04/03 01:36:56;;;;;;;6.80;3.70;;;0.50;99.90;;;;;;5057550;28;38567;-76
2022/04/03 01:39:22;;;;;;;6.57;4.23;;;0.50;99.90;;;;;;5058359;27;38318;-76
2022/04/03 01:41:48;;;;;;;5.03;2.87;;;0.50;99.90;;;;;;5068576;28;37860;-76
2022/04/03 01:44:14;;;;;;;6.20;3.17;;;0.50;99.90;;;;;;5057517;28;37477;-75
2022/04/03 01:46:41;;;;;;;7.97;3.70;;;0.50;99.90;;;;;;5052176;28;40958;-76
2022/04/03 01:49:08;;;;;;;4.93;3.03;;;0.50;99.90;;;;;;5056943;28;39283;-75
2022/04/03 01:51:34;;;;;;;6.47;3.23;;;0.50;99.90;;;;;;5068788;28;38691;-75
2022/04/03 01:54:01;;;;;;;6.63;3.43;;;0.50;99.90;;;;;;5057604;27;37075;-76
2022/04/03 01:56:27;;;;;;;7.30;3.90;;;0.50;99.90;;;;;;5060768;28;48396;-76
2022/04/03 01:58:54;;;;;;;10.30;3.20;;;0.40;99.90;;;;;;5053320;28;40235;-75
2022/04/03 02:01:20;;;;;;;17.40;4.53;;;0.30;99.90;;;;;;5055405;28;39643;-75
2022/04/03 02:03:46;;;;;;;5.87;3.70;;;0.20;99.90;;;;;;5051511;28;36903;-75
2022/04/03 02:06:13;;;;;;;6.33;3.60;;;0.20;99.90;;;;;;5051134;28;38641;-75
2022/04/03 02:08:40;;;;;;;6.70;4.77;;;0.10;99.90;;;;;;5052708;28;39297;-75
2022/04/03 02:11:06;;;;;;;6.07;3.50;;;0.00;99.90;;;;;;5047672;28;38536;-75
2022/04/03 02:13:32;;;;;;;7.50;3.77;;;0.00;99.90;;;;;;5051583;28;37838;-75
2022/04/03 02:15:58;;;;;;;6.23;3.93;;;0.00;99.90;;;;;;5052834;28;38855;-75
2022/04/03 02:18:24;;;;;;;4.63;3.70;;;-0.10;99.90;;;;;;5057544;28;38520;-75
2022/04/03 02:20:50;;;;;;;5.70;4.30;;;-0.20;99.90;;;;;;5056949;28;38425;-75
2022/04/03 02:23:17;;;;;;;8.50;4.17;;;-0.30;99.90;;;;;;5056254;28;38841;-75
2022/04/03 02:25:43;;;;;;;6.00;4.63;;;-0.40;99.90;;;;;;5053553;28;38773;-75
2022/04/03 02:28:10;;;;;;;6.13;3.90;;;-0.40;99.90;;;;;;5067165;28;38958;-75
2022/04/03 02:30:36;;;;;;;11.07;4.60;;;-0.40;99.90;;;;;;5052398;28;38068;-75
2022/04/03 02:33:03;;;;;;;6.97;3.60;;;-0.50;99.90;;;;;;5051409;28;37297;-75
2022/04/03 02:35:29;;;;;;;7.70;4.43;;;-0.50;99.90;;;;;;5053873;28;38965;-75
2022/04/03 02:37:55;;;;;;;6.23;4.03;;;-0.50;99.90;;;;;;5050807;28;40862;-75
2022/04/03 02:40:21;;;;;;;7.87;4.07;;;-0.50;99.90;;;;;;5053075;28;38761;-75
2022/04/03 02:42:47;;;;;;;8.37;4.30;;;-0.60;99.90;;;;;;5054016;28;37273;-75
2022/04/03 02:45:15;;;;;;;7.00;4.10;;;-0.70;99.90;;;;;;5056256;28;38976;-75
2022/04/03 02:47:48;;;;;;;5.77;3.63;;;-0.70;99.90;;;;;;5067542;28;38730;-75
2022/04/03 02:50:16;;;;;;;6.40;4.00;;;-0.80;99.90;;;;;;5055498;28;38085;-75
2022/04/03 02:52:51;;;;;;;6.83;4.87;;;-0.80;99.90;;;;;;5056581;28;36790;-75
2022/04/03 02:55:19;;;;;;;5.13;3.33;;;-0.90;99.90;;;;;;5059311;28;38875;-75
2022/04/03 02:57:46;;;;;;;7.80;4.40;;;-0.90;99.90;;;;;;5048878;28;38509;-75
2022/04/03 03:00:17;;;;;;;7.37;4.10;;;-0.90;99.90;;;;;;5049828;28;38288;-75
2022/04/03 03:02:47;;;;;;;7.23;4.50;;;-0.90;99.90;;;;;;5055618;27;38494;-75
2022/04/03 03:05:14;;;;;;;6.73;4.10;;;-1.00;99.90;;;;;;5046214;28;40563;-75
2022/04/03 03:07:42;;;;;;;8.83;4.47;;;-1.10;99.90;;;;;;5055453;28;38981;-75
2022/04/03 03:10:13;;;;;;;6.17;3.90;;;-1.10;99.90;;;;;;5054791;28;39097;-75
2022/04/03 03:12:39;;;;;;;8.53;4.53;;;-1.10;99.90;;;;;;5054051;27;38129;-75
2022/04/03 03:15:05;;;;;;;8.47;4.67;;;-1.10;99.90;;;;;;5056875;28;38780;-75
2022/04/03 03:17:31;;;;;;;8.03;4.30;;;-1.20;99.90;;;;;;5054509;28;38826;-75
2022/04/03 03:19:58;;;;;;;10.80;3.57;;;-1.20;99.90;;;;;;5075083;28;39292;-75
2022/04/03 03:22:25;;;;;;;11.03;4.30;;;-1.20;99.90;;;;;;5056352;28;38365;-75
2022/04/03 03:24:51;;;;;;;8.23;4.73;;;-1.10;99.90;;;;;;5055780;28;39342;-76
2022/04/03 03:27:17;;;;;;;6.90;4.00;;;-1.20;99.90;;;;;;5051523;28;38745;-75
2022/04/03 03:29:43;;;;;;;10.07;4.40;;;-1.10;99.90;;;;;;5054872;28;40392;-75
2022/04/03 03:32:09;;;;;;;6.43;4.23;;;-1.10;99.90;;;;;;5056906;28;38803;-75
2022/04/03 03:34:36;;;;;;;9.57;4.13;;;-1.20;99.90;;;;;;5058243;28;39372;-74
2022/04/03 03:37:02;;;;;;;7.93;4.37;;;-1.20;99.90;;;;;;5059020;27;37331;-74
2022/04/03 03:39:28;;;;;;;8.23;3.90;;;-1.30;99.90;;;;;;5058664;28;38417;-75
2022/04/03 03:41:55;;;;;;;9.83;4.53;;;-1.30;99.90;;;;;;5058641;28;37171;-75
2022/04/03 03:44:22;;;;;;;6.40;3.77;;;-1.30;99.90;;;;;;5062038;27;39713;-74
2022/04/03 03:46:49;;;;;;;9.27;5.13;;;-1.30;99.90;;;;;;5060537;28;38594;-75
2022/04/03 03:49:15;;;;;;;6.77;3.90;;;-1.40;99.90;;;;;;5060258;28;37925;-75
2022/04/03 03:51:41;;;;;;;8.40;4.87;;;-1.30;99.90;;;;;;5058705;28;36204;-75
2022/04/03 03:54:08;;;;;;;6.40;4.30;;;-1.30;99.90;;;;;;5060338;28;39661;-74
2022/04/03 03:56:34;;;;;;;8.63;5.20;;;-1.30;99.90;;;;;;5060086;28;37409;-74
2022/04/03 03:59:01;;;;;;;8.83;3.90;;;-1.40;99.90;;;;;;5056334;28;39046;-75
2022/04/03 04:01:27;;;;;;;6.00;4.37;;;-1.40;99.90;;;;;;5052436;28;35792;-75
2022/04/03 04:03:53;;;;;;;6.03;4.40;;;-1.50;99.90;;;;;;5048599;27;38681;-75
2022/04/03 04:06:19;;;;;;;7.70;4.20;;;-1.50;99.90;;;;;;5050410;28;37380;-75
2022/04/03 04:08:45;;;;;;;6.83;4.20;;;-1.50;99.90;;;;;;5054221;28;35601;-75
2022/04/03 04:11:11;;;;;;;9.63;4.63;;;-1.60;99.90;;;;;;5048486;28;38064;-75
2022/04/03 04:13:38;;;;;;;8.57;4.43;;;-1.60;99.90;;;;;;5054470;28;38618;-75
2022/04/03 04:16:05;;;;;;;5.80;3.93;;;-1.60;99.90;;;;;;5053646;28;38268;-75
2022/04/03 04:18:31;;;;;;;7.57;4.63;;;-1.60;99.90;;;;;;5054243;28;37883;-75
2022/04/03 04:20:57;;;;;;;9.53;4.60;;;-1.60;99.90;;;;;;5055371;28;36223;-75
2022/04/03 04:23:23;;;;;;;8.17;4.57;;;-1.60;99.90;;;;;;5062545;27;38759;-75
2022/04/03 04:25:49;;;;;;;9.03;4.00;;;-1.70;99.90;;;;;;5058742;28;38136;-75
2022/04/03 04:28:16;;;;;;;8.80;4.70;;;-1.80;99.90;;;;;;5055450;28;38791;-75
2022/04/03 04:30:42;;;;;;;7.07;4.50;;;-1.90;99.90;;;;;;5068649;27;37451;-75
2022/04/03 04:33:08;;;;;;;6.87;3.90;;;-1.90;99.90;;;;;;5070074;28;41572;-75
2022/04/03 04:35:34;;;;;;;7.93;4.30;;;-1.90;99.90;;;;;;5073783;28;38907;-75
2022/04/03 04:38:04;;;;;;;6.83;4.03;;;-1.90;99.90;;;;;;5056933;28;38116;-75
2022/04/03 04:40:31;;;;;;;7.33;4.70;;;-1.90;99.90;;;;;;5056163;28;49092;-75
2022/04/03 04:42:58;;;;;;;8.33;4.17;;;-1.90;99.90;;;;;;5058174;28;39620;-75
2022/04/03 04:45:25;;;;;;;8.70;5.00;;;-1.90;99.90;;;;;;5053555;28;39743;-75
2022/04/03 04:47:59;;;;;;;5.77;4.40;;;-2.00;99.90;;;;;;5075173;28;36685;-75
2022/04/03 04:50:27;;;;;;;5.57;4.00;;;-2.00;99.90;;;;;;5054111;28;39108;-75
2022/04/03 04:52:54;;;;;;;6.20;4.53;;;-2.10;99.90;;;;;;5055436;27;38715;-75
2022/04/03 04:55:20;;;;;;;8.73;4.80;;;-2.10;99.90;;;;;;5057867;28;38572;-75
2022/04/03 04:57:55;;;;;;;10.33;4.37;;;-2.20;99.90;;;;;;5056595;28;38798;-75
2022/04/03 05:00:23;;;;;;;8.30;4.47;;;-2.20;99.90;;;;;;5055912;28;37599;-75
2022/04/03 05:02:49;;;;;;;7.30;4.27;;;-2.20;99.90;;;;;;5054747;28;38751;-76
2022/04/03 05:05:20;;;;;;;5.50;3.70;;;-2.20;99.90;;;;;;5051496;28;38763;-75
2022/04/03 05:07:50;;;;;;;6.30;4.40;;;-2.20;99.90;;;;;;5053436;28;37850;-75
2022/04/03 05:10:16;;;;;;;4.83;3.67;;;-2.20;99.90;;;;;;5052819;28;37826;-75
2022/04/03 05:12:44;;;;;;;6.47;4.27;;;-2.20;99.90;;;;;;5056848;28;39576;-75
2022/04/03 05:15:11;;;;;;;7.73;4.20;;;-2.20;99.90;;;;;;5050557;28;38695;-75
2022/04/03 05:17:42;;;;;;;5.33;3.80;;;-2.20;99.90;;;;;;5057473;28;38471;-75
2022/04/03 05:20:09;;;;;;;5.53;4.37;;;-2.20;99.90;;;;;;5055986;28;38618;-75
2022/04/03 05:22:35;;;;;;;7.07;4.00;;;-2.20;99.90;;;;;;5057873;27;40475;-75
2022/04/03 05:25:04;;;;;;;12.23;5.23;;;-2.10;99.90;;;;;;5056123;28;39208;-74
2022/04/03 05:27:32;;;;;;;9.30;4.87;;;-2.20;99.90;;;;;;5051803;28;48254;-75
2022/04/03 05:29:58;;;;;;;6.53;4.20;;;-2.20;99.90;;;;;;5052612;28;37454;-75
2022/04/03 05:32:28;;;;;;;10.43;5.30;;;-2.20;99.90;;;;;;5057987;27;39765;-75
2022/04/03 05:34:56;;;;;;;10.10;4.60;;;-2.20;99.90;;;;;;5052446;28;40391;-76
2022/04/03 05:37:22;;;;;;;8.63;5.00;;;-2.10;99.90;;;;;;5059076;27;38716;-76
2022/04/03 05:39:51;;;;;;;8.00;4.90;;;-2.10;99.90;;;;;;5056287;28;37750;-74
2022/04/03 05:42:20;;;;;;;7.57;4.60;;;-2.00;99.90;;;;;;5058285;28;38711;-76
2022/04/03 05:44:47;;;;;;;5.83;4.60;;;-2.10;99.90;;;;;;5054978;28;37793;-76
2022/04/03 05:47:16;;;;;;;5.83;4.40;;;-2.10;99.90;;;;;;5055472;27;38495;-76
2022/04/03 05:49:42;;;;;;;11.23;5.50;;;-2.10;99.90;;;;;;5056883;28;37602;-76
2022/04/03 05:52:08;;;;;;;7.47;5.30;;;-2.00;99.90;;;;;;5055483;27;38595;-76
2022/04/03 05:54:34;;;;;;;12.87;6.40;;;-2.00;99.90;;;;;;5061914;28;36992;-76
2022/04/03 05:57:00;;;;;;;8.27;5.23;;;-2.00;99.90;;;;;;5055214;28;38934;-77
2022/04/03 05:59:27;;;;;;;8.47;6.33;;;-2.00;99.90;;;;;;5053396;28;46634;-76
2022/04/03 06:01:53;;;;;;;10.93;6.17;;;-1.90;99.90;;;;;;5051811;28;41022;-76
2022/04/03 06:04:19;;;;;;;13.40;7.33;;;-1.80;99.90;;;;;;5054268;28;38602;-76
2022/04/03 06:06:45;;;;;;;9.00;6.77;;;-1.80;99.90;;;;;;5052571;28;37959;-76
2022/04/03 06:09:11;;;;;;;11.73;6.97;;;-1.80;99.90;;;;;;5065576;28;37179;-75
2022/04/03 06:11:37;;;;;;;11.20;6.93;;;-1.70;99.90;;;;;;5052179;28;38764;-76
2022/04/03 06:14:03;;;;;;;13.90;9.40;;;-1.70;99.90;;;;;;5051601;28;38489;-75
2022/04/03 06:16:29;;;;;;;12.63;9.57;;;-1.50;99.90;;;;;;5051722;28;38558;-76
2022/04/03 06:18:55;;;;;;;15.17;11.67;;;-1.30;99.90;;;;;;5051675;28;37963;-76
2022/04/03 06:21:21;;;;;;;13.70;10.50;;;-1.20;99.90;;;;;;5057890;28;37715;-76
2022/04/03 06:23:48;;;;;;;18.83;11.20;;;-1.10;99.90;;;;;;5057489;28;40020;-76
2022/04/03 06:26:14;;;;;;;12.30;8.70;;;-1.10;99.90;;;;;;5071024;28;38485;-76
2022/04/03 06:28:40;;;;;;;16.03;12.03;;;-0.90;99.90;;;;;;5058985;28;39146;-76
2022/04/03 06:31:06;;;;;;;19.00;12.67;;;-0.80;99.90;;;;;;5057013;28;38932;-76
2022/04/03 06:33:32;;;;;;;18.97;11.90;;;-0.70;99.90;;;;;;5059837;28;38383;-76
2022/04/03 06:36:00;;;;;;;18.30;12.67;;;-0.60;99.90;;;;;;5052181;28;40033;-76
2022/04/03 06:38:26;;;;;;;14.90;12.03;;;-0.50;99.90;;;;;;5033062;28;47694;-76
2022/04/03 06:40:55;;;;;;;15.73;11.73;;;-0.40;99.90;;;;;;5051555;28;37375;-77
2022/04/03 06:43:26;;;;;;;13.47;9.93;;;-0.30;99.90;;;;;;5052137;28;39336;-77
2022/04/03 06:45:53;;;;;;;13.37;9.40;;;-0.10;99.90;;;;;;5050590;28;38189;-73
2022/04/03 06:48:20;;;;;;;12.30;9.03;;;0.10;99.90;;;;;;5058090;28;36808;-76
2022/04/03 06:50:46;;;;;;;13.60;9.47;;;0.30;99.90;;;;;;5052397;28;39398;-76
2022/04/03 06:53:13;;;;;;;16.17;10.00;;;0.60;99.90;;;;;;5051800;28;40139;-74
2022/04/03 06:55:39;;;;;;;19.03;10.97;;;0.70;99.90;;;;;;5054374;28;39755;-74
2022/04/03 06:58:05;;;;;;;13.10;9.30;;;0.70;99.90;;;;;;5051935;28;35721;-76
2022/04/03 07:00:32;;;;;;;13.10;10.10;;;0.70;99.90;;;;;;5047912;28;47323;-74
2022/04/03 07:02:58;;;;;;;11.63;7.93;;;0.80;99.90;;;;;;5071575;28;41236;-76
2022/04/03 07:05:24;;;;;;;11.13;9.30;;;0.80;99.90;;;;;;5055697;28;37515;-77
2022/04/03 07:07:52;;;;;;;14.13;9.20;;;0.80;99.90;;;;;;5052833;28;37352;-76
2022/04/03 07:10:19;;;;;;;14.83;9.03;;;0.90;99.90;;;;;;5055598;28;40681;-75
2022/04/03 07:12:45;;;;;;;13.23;8.17;;;1.00;99.90;;;;;;5053870;28;37614;-74
2022/04/03 07:15:12;;;;;;;13.73;8.60;;;1.10;99.90;;;;;;5055440;28;39500;-76
2022/04/03 07:17:43;;;;;;;11.10;7.97;;;1.30;99.90;;;;;;5062292;28;37894;-74
2022/04/03 07:20:13;;;;;;;13.47;6.93;;;1.50;99.90;;;;;;5059954;28;39551;-75
2022/04/03 07:22:43;;;;;;;9.03;6.70;;;1.70;99.90;;;;;;5041828;28;37205;-74
2022/04/03 07:25:11;;;;;;;12.00;5.87;;;1.80;99.90;;;;;;5057577;28;36966;-74
2022/04/03 07:27:39;;;;;;;9.10;6.43;;;2.00;99.90;;;;;;5054163;28;38215;-74
2022/04/03 07:30:06;;;;;;;6.73;4.77;;;2.20;99.90;;;;;;5049270;28;39755;-74
2022/04/03 07:32:32;;;;;;;6.80;3.73;;;2.30;99.90;;;;;;5055878;27;39089;-74
2022/04/03 07:34:58;;;;;;;7.03;4.00;;;2.50;99.90;;;;;;5050119;28;39186;-77
2022/04/03 07:37:25;;;;;;;11.10;4.20;;;2.70;99.90;;;;;;5058539;28;36992;-77
2022/04/03 07:39:51;;;;;;;6.13;3.70;;;2.80;99.90;;;;;;5055064;28;39131;-77
2022/04/03 07:42:17;;;;;;;7.90;3.77;;;2.90;99.90;;;;;;5058281;27;40349;-77
2022/04/03 07:44:44;;;;;;;7.97;3.47;;;3.10;99.90;;;;;;5063339;28;38110;-77
2022/04/03 07:47:11;;;;;;;6.27;2.97;;;3.20;99.90;;;;;;5057212;28;38284;-77
2022/04/03 07:49:37;;;;;;;5.73;2.80;;;3.50;99.90;;;;;;5060166;28;38890;-77
2022/04/03 07:52:04;;;;;;;9.37;3.27;;;3.60;99.90;;;;;;5061724;28;38296;-76
2022/04/03 07:54:30;;;;;;;6.83;3.77;;;3.90;99.90;;;;;;5059482;28;38416;-77
2022/04/03 07:56:56;;;;;;;6.50;4.03;;;4.30;99.90;;;;;;5058091;28;39068;-79
2022/04/03 07:59:22;;;;;;;5.83;3.33;;;4.60;99.90;;;;;;5060392;27;39438;-77
2022/04/03 08:01:48;;;;;;;7.13;3.00;;;4.80;99.90;;;;;;5056771;28;39878;-78
2022/04/03 08:04:15;;;;;;;6.60;2.63;;;5.30;99.90;;;;;;5074408;28;38716;-80
2022/04/03 08:06:41;;;;;;;5.90;2.47;;;5.80;99.90;;;;;;5059286;28;37267;-79
2022/04/03 08:09:07;;;;;;;5.10;2.10;;;6.50;99.90;;;;;;5056409;28;40532;-80
2022/04/03 08:11:34;;;;;;;3.03;1.80;;;7.00;99.90;;;;;;5057440;28;38475;-80
2022/04/03 08:14:01;;;;;;;5.43;1.90;;;7.20;99.90;;;;;;5053355;28;40068;-80
2022/04/03 08:16:27;;;;;;;3.23;1.77;;;7.50;99.90;;;;;;5041363;28;35060;-80
2022/04/03 08:18:53;;;;;;;2.53;1.30;;;7.60;99.90;;;;;;5039584;28;38990;-79
2022/04/03 08:21:19;;;;;;;3.20;1.63;;;7.50;99.90;;;;;;5056473;28;38682;-78
2022/04/03 08:23:46;;;;;;;4.67;1.70;;;7.60;99.90;;;;;;5022997;28;38951;-77
2022/04/03 08:26:12;;;;;;;4.20;1.20;;;7.50;99.90;;;;;;5056066;28;37522;-79
2022/04/03 08:28:38;;;;;;;2.13;0.50;;;7.50;99.90;;;;;;5056945;27;39312;-78
2022/04/03 08:31:04;;;;;;;2.37;0.87;;;7.30;99.90;;;;;;5049435;28;38801;-77
2022/04/03 08:33:31;;;;;;;4.10;0.90;;;7.10;99.90;;;;;;5061492;27;38054;-80
2022/04/03 08:35:57;;;;;;;3.17;1.00;;;7.00;99.90;;;;;;5056905;28;38118;-79
2022/04/03 08:38:23;;;;;;;4.17;1.30;;;6.70;99.90;;;;;;5056576;28;38236;-79
2022/04/03 08:40:49;;;;;;;2.33;1.20;;;6.40;99.90;;;;;;5058747;28;38292;-79
2022/04/03 08:43:15;;;;;;;3.50;1.03;;;6.40;99.90;;;;;;5068719;28;39891;-78
2022/04/03 08:45:42;;;;;;;3.63;1.10;;;6.70;99.90;;;;;;5056709;28;38669;-79
2022/04/03 08:48:08;;;;;;;3.70;1.07;;;7.00;99.90;;;;;;5056124;27;38738;-79
2022/04/03 08:50:37;;;;;;;1.83;1.30;;;7.30;99.90;;;;;;5057717;28;38389;-77
2022/04/03 08:53:06;;;;;;;7.83;2.20;;;7.60;99.90;;;;;;5054894;27;39256;-79
2022/04/03 08:55:32;;;;;;;3.70;1.23;;;7.70;99.90;;;;;;5056842;28;37470;-79
2022/04/03 08:57:59;;;;;;;4.27;1.50;;;7.90;99.90;;;;;;5054541;28;39206;-79
2022/04/03 09:00:25;;;;;;;3.07;1.80;;;7.90;99.90;;;;;;5059504;28;39873;-79
2022/04/03 09:02:51;;;;;;;2.23;1.40;;;7.90;99.90;;;;;;5054921;28;38867;-78
2022/04/03 09:05:18;;;;;;;3.53;1.67;;;8.00;99.90;;;;;;5053887;28;37143;-77
2022/04/03 09:07:59;;;;;;;3.17;1.30;;;8.20;99.90;;;;;;5056489;27;38710;-77
2022/04/03 09:10:26;;;;;;;3.30;1.27;;;8.50;99.90;;;;;;5051424;28;39025;-77
2022/04/03 09:12:52;;;;;;;8.63;1.27;;;8.60;99.90;;;;;;5058150;28;38572;-77
2022/04/03 09:15:21;;;;;;;4.73;1.40;;;8.70;99.90;;;;;;5056536;28;37667;-77
2022/04/03 09:17:50;;;;;;;3.87;1.20;;;8.60;99.90;;;;;;5059431;27;38861;-78
2022/04/03 09:20:18;;;;;;;2.50;0.97;;;8.50;99.90;;;;;;5061200;28;38297;-77
2022/04/03 09:22:49;;;;;;;1.53;1.03;;;8.30;99.90;;;;;;5055384;28;38379;-78
2022/04/03 09:25:16;;;;;;;4.50;1.20;;;7.90;99.90;;;;;;5060208;28;36933;-77
2022/04/03 09:27:56;;;;;;;4.30;1.30;;;7.60;99.90;;;;;;5055419;28;39477;-81
2022/04/03 09:30:36;;;;;;;3.20;1.30;;;7.30;99.90;;;;;;5075427;28;40155;-80
2022/04/03 09:33:04;;;;;;;5.87;1.87;;;7.30;99.90;;;;;;5056021;28;38043;-79
2022/04/03 09:35:51;;;;;;;4.70;0.97;;;7.50;99.90;;;;;;5060808;28;38175;-79
2022/04/03 09:38:18;;;;;;;2.23;0.67;;;7.50;99.90;;;;;;5057143;28;38912;-79
2022/04/03 09:40:49;;;;;;;1.90;0.50;;;7.80;99.90;;;;;;5060894;28;37457;-77
2022/04/03 09:43:27;;;;;;;1.80;0.60;;;8.10;99.90;;;;;;5062407;27;38110;-77
2022/04/03 09:46:21;;;;;;;7.77;0.60;;;8.30;99.90;;;;;;5063676;28;36341;-77
2022/04/03 09:48:47;;;;;;;1.53;0.40;;;8.30;99.90;;;;;;5063595;28;48539;-77
2022/04/03 09:51:22;;;;;;;1.20;0.50;;;8.60;99.90;;;;;;5066722;28;39401;-77
2022/04/03 09:53:53;;;;;;;2.23;0.80;;;8.90;99.90;;;;;;5057367;28;37405;-77
2022/04/03 09:56:23;;;;;;;3.83;0.60;;;9.00;99.90;;;;;;5058999;27;36304;-77
2022/04/03 09:58:51;;;;;;;4.13;0.50;;;9.30;99.90;;;;;;5059583;28;38510;-77
2022/04/03 10:01:35;;;;;;;1.13;0.45;;;9.30;99.90;;;;;;5057584;28;39162;-79
2022/04/03 10:04:06;;;;;;;1.17;0.40;;;9.10;99.90;;;;;;5063351;28;39324;-77
2022/04/03 10:06:34;;;;;;;5.73;0.60;;;8.80;99.90;;;;;;5059722;28;46923;-78
2022/04/03 10:09:01;;;;;;;2.05;0.30;;;8.60;99.90;;;;;;5046709;28;39074;-77
2022/04/03 10:11:29;;;;;;;2.67;0.77;;;8.50;99.90;;;;;;5062038;28;40070;-76
2022/04/03 10:13:55;;;;;;;2.77;1.20;;;8.50;99.90;;;;;;5064203;28;38911;-77
2022/04/03 10:16:22;;;;;;;0.50;0.30;;;8.50;99.90;;;;;;5065348;28;38200;-77
2022/04/03 10:18:50;;;;;;;2.40;0.30;;;8.40;99.90;;;;;;5061324;28;39309;-77
2022/04/03 10:21:40;;;;;;;3.50;0.50;;;8.60;99.90;;;;;;5064242;28;38587;-77
2022/04/03 10:24:13;;;;;;;4.70;1.03;;;8.50;99.90;;;;;;5063186;28;37291;-77
2022/04/03 10:26:41;;;;;;;2.67;0.43;;;8.70;99.90;;;;;;5063670;28;36189;-77
2022/04/03 10:29:10;;;;;;;2.30;0.20;;;8.40;99.90;;;;;;5063419;27;39901;-77
2022/04/03 10:31:37;;;;;;;1.07;0.60;;;8.20;99.90;;;;;;5065390;28;39380;-77
2022/04/03 10:34:04;;;;;;;3.03;0.50;;;7.90;99.90;;;;;;5064297;28;38317;-77
2022/04/03 10:36:30;;;;;;;2.10;0.60;;;7.80;99.90;;;;;;5060784;28;38021;-80
2022/04/03 10:39:04;;;;;;;4.70;0.70;;;7.70;99.90;;;;;;5060304;28;39193;-79
2022/04/03 10:41:36;;;;;;;2.57;0.50;;;7.70;99.90;;;;;;5060736;28;47332;-79
2022/04/03 10:44:22;;;;;;;3.37;0.60;;;7.90;99.90;;;;;;5064659;28;38347;-79
2022/04/03 10:47:04;;;;;;;0.90;0.20;;;8.10;99.90;;;;;;5069058;28;36418;-77
2022/04/03 10:49:40;;;;;;;0.73;0.40;;;8.20;99.90;;;;;;5066850;28;47167;-76
2022/04/03 10:52:10;;;;;;;1.03;0.37;;;8.20;99.90;;;;;;5068793;27;38381;-77
2022/04/03 10:54:49;;;;;;;2.60;0.60;;;8.20;99.90;;;;;;5068643;28;38526;-77
2022/04/03 10:57:38;;;;;;;4.97;0.50;;;8.40;99.90;;;;;;5067398;28;37410;-79
2022/04/03 11:00:13;;;;;;;2.40;0.67;;;8.50;99.90;;;;;;5075432;28;38117;-80
2022/04/03 11:02:51;;;;;;;2.60;0.70;;;8.50;99.90;;;;;;5062899;28;39337;-80
2022/04/03 11:05:26;;;;;;;2.20;0.73;;;8.20;99.90;;;;;;5064597;28;39046;-80
2022/04/03 11:08:02;;;;;;;4.70;1.07;;;7.80;99.90;;;;;;5069562;27;37235;-82
2022/04/03 11:10:57;;;;;;;3.30;0.70;;;7.60;99.90;;;;;;5074490;28;47401;-82
2022/04/03 11:13:37;;;;;;;3.50;0.80;;;7.30;99.90;;;;;;5067964;28;39339;-83
2022/04/03 11:16:12;;;;;;;5.73;0.60;;;7.10;99.90;;;;;;5084894;28;38634;-82
2022/04/03 11:18:50;;;;;;;4.47;1.83;;;7.00;99.90;;;;;;5065534;28;36570;-83
2022/04/03 11:21:25;;;;;;;3.00;1.10;;;6.80;99.90;;;;;;5086099;28;38017;-83
2022/04/03 11:24:05;;;;;;;7.17;0.80;;;6.60;99.90;;;;;;5071554;27;39617;-82
2022/04/03 11:26:37;;;;;;;3.33;0.67;;;6.60;99.90;;;;;;5072131;28;48562;-83
2022/04/03 11:29:05;;;;;;;0.30;0.30;;;6.80;99.90;;;;;;5067602;28;36112;-82
2022/04/03 11:31:32;;;;;;;1.60;0.50;;;6.90;99.90;;;;;;5064653;28;47351;-83
2022/04/03 11:34:00;;;;;;;1.13;0.50;;;7.10;99.90;;;;;;5066271;27;39007;-82
2022/04/03 11:36:28;;;;;;;2.20;0.60;;;7.40;99.90;;;;;;5063278;28;37129;-82
2022/04/03 11:38:55;;;;;;;3.70;0.50;;;8.00;99.90;;;;;;5067478;28;38115;-80
2022/04/03 11:41:37;;;;;;;2.40;0.50;;;8.40;99.90;;;;;;5060538;28;39700;-80
2022/04/03 11:44:10;;;;;;;2.47;0.47;;;8.70;99.90;;;;;;5061459;28;40842;-80
2022/04/03 11:46:41;;;;;;;2.05;0.63;;;9.20;99.90;;;;;;5067076;28;37044;-81
2022/04/03 11:49:15;;;;;;;1.25;0.30;;;9.80;99.90;;;;;;5064316;28;36742;-80
2022/04/03 11:51:42;;;;;;;2.53;0.55;;;10.30;99.90;;;;;;5060599;28;39455;-83
2022/04/03 11:54:09;;;;;;;0.88;0.38;;;10.40;99.90;;;;;;5062595;28;38198;-80
2022/04/03 11:56:36;;;;;;;3.05;0.63;;;10.50;99.90;;;;;;5052255;28;38234;-80
2022/04/03 11:59:04;;;;;;;2.25;0.30;;;10.40;99.90;;;;;;5068807;28;36549;-82
2022/04/03 12:01:30;;;;;;;3.53;1.10;;;10.80;99.90;;;;;;5073306;28;38841;-83
2022/04/03 12:04:01;;;;;;;1.40;0.70;;;10.40;99.90;;;;;;5068070;28;37083;-80
2022/04/03 12:06:30;;;;;;;2.72;0.40;;;9.60;99.90;;;;;;5064652;28;47135;-80
2022/04/03 12:08:57;;;;;;;4.38;1.17;;;9.00;99.90;;;;;;5063758;27;36919;-80
2022/04/03 12:11:30;;;;;;;3.17;0.80;;;8.80;99.90;;;;;;5063488;28;38898;-80
2022/04/03 12:13:58;;;;;;;2.20;0.40;;;8.80;99.90;;;;;;5063888;28;38471;-80
2022/04/03 12:16:30;;;;;;;5.50;0.33;;;8.80;99.90;;;;;;5069704;28;38043;-80
2022/04/03 12:19:02;;;;;;;2.92;0.50;;;8.70;99.90;;;;;;5082673;28;36027;-80
2022/04/03 12:21:49;;;;;;;3.50;0.55;;;9.10;99.90;;;;;;5081047;28;47431;-79
2022/04/03 12:24:19;;;;;;;1.20;0.50;;;9.90;99.90;;;;;;5062434;28;37779;-80
2022/04/03 12:26:52;;;;;;;0.93;0.40;;;9.90;99.90;;;;;;5065730;28;38749;-80
2022/04/03 12:29:19;;;;;;;3.47;0.40;;;10.20;99.90;;;;;;5062586;28;35966;-80
2022/04/03 12:32:10;;;;;;;1.23;0.38;;;10.10;99.90;;;;;;5068045;28;37994;-80
2022/04/03 12:34:40;;;;;;;1.13;0.30;;;9.60;99.90;;;;;;5053612;28;47635;-80
2022/04/03 12:37:08;;;;;;;0.95;0.40;;;10.00;99.90;;;;;;5086436;28;38726;-79
2022/04/03 12:39:41;;;;;;;2.13;0.40;;;10.30;99.90;;;;;;5070606;28;38078;-79
2022/04/03 12:42:17;;;;;;;2.47;0.52;;;9.90;99.90;;;;;;5066429;28;39053;-80
2022/04/03 12:44:58;;;;;;;1.95;0.40;;;9.70;99.90;;;;;;5087692;28;38946;-78
2022/04/03 12:47:31;;;;;;;3.23;0.40;;;9.20;99.90;;;;;;5067012;28;37137;-81
2022/04/03 12:50:06;;;;;;;2.03;0.40;;;8.80;99.90;;;;;;5063736;28;36634;-81
2022/04/03 12:52:42;;;;;;;1.95;0.20;;;9.30;99.90;;;;;;5066004;28;47656;-78
2022/04/03 12:55:47;;;;;;;0.70;0.20;;;10.10;99.90;;;;;;5069388;28;38012;-79
2022/04/03 12:58:30;;;;;;;1.63;0.40;;;10.10;99.90;;;;;;5061469;28;37568;-78